createdAt,value
2018-12-08T00:01:12.347Z,16.77
2018-12-08T00:03:40.657Z,11.77
2018-12-08T00:06:08.963Z,12.37
2018-12-08T00:08:37.393Z,13.33
2018-12-08T00:11:05.937Z,14.13
2018-12-08T00:13:34.333Z,20.63
2018-12-08T00:16:02.841Z,11.80
2018-12-08T00:18:31.401Z,15.47
2018-12-08T00:20:59.706Z,11.00
2018-12-08T00:23:28.029Z,11.87
2018-12-08T00:25:56.350Z,13.67
2018-12-08T00:28:25.581Z,19.83
2018-12-08T00:31:11.836Z,16.97
2018-12-08T00:33:40.428Z,15.63
2018-12-08T00:36:08.727Z,14.13
2018-12-08T00:38:37.152Z,15.40
2018-12-08T00:41:05.536Z,15.67
2018-12-08T00:43:34.646Z,14.93
2018-12-08T00:46:02.957Z,11.50
2018-12-08T00:48:31.326Z,18.40
2018-12-08T00:51:00.342Z,13.80
2018-12-08T00:53:28.959Z,12.10
2018-12-08T00:55:57.398Z,12.67
2018-12-08T00:58:25.970Z,16.13
2018-12-08T01:00:54.322Z,11.80
2018-12-08T01:03:22.618Z,11.93
2018-12-08T01:05:50.965Z,21.40
2018-12-08T01:08:20.016Z,13.30
2018-12-08T01:10:48.317Z,9.17
2018-12-08T01:13:16.652Z,12.47
2018-12-08T01:15:45.175Z,13.27
2018-12-08T01:18:13.737Z,9.43
2018-12-08T01:20:42.045Z,9.50
2018-12-08T01:23:10.345Z,17.63
2018-12-08T01:25:38.771Z,13.03
2018-12-08T01:28:07.272Z,13.43
2018-12-08T01:30:35.789Z,14.57
2018-12-08T01:33:04.167Z,14.80
2018-12-08T01:35:32.468Z,18.40
2018-12-08T01:38:00.774Z,19.13
2018-12-08T01:40:29.173Z,16.73
2018-12-08T01:42:58.423Z,22.63
2018-12-08T01:45:26.889Z,15.30
2018-12-08T01:47:55.839Z,15.57
2018-12-08T01:50:24.174Z,16.73
2018-12-08T01:52:52.752Z,11.93
2018-12-08T01:55:21.455Z,15.00
2018-12-08T01:57:49.753Z,17.03
2018-12-08T02:00:18.049Z,15.87
2018-12-08T02:02:47.203Z,16.93
2018-12-08T02:05:15.611Z,21.53
2018-12-08T02:07:44.143Z,19.27
2018-12-08T02:10:12.677Z,14.17
2018-12-08T02:12:41.122Z,15.77
2018-12-08T02:15:09.473Z,18.20
2018-12-08T02:17:37.795Z,18.00
2018-12-08T02:20:06.269Z,17.67
2018-12-08T02:22:34.627Z,23.00
2018-12-08T02:25:03.246Z,12.33
2018-12-08T02:27:31.738Z,11.63
2018-12-08T02:30:00.024Z,17.93
2018-12-08T02:32:28.491Z,15.33
2018-12-08T02:34:57.162Z,18.03
2018-12-08T02:37:25.566Z,13.60
2018-12-08T02:39:54.021Z,13.87
2018-12-08T02:42:23.177Z,7.83
2018-12-08T02:44:51.504Z,10.60
2018-12-08T02:47:19.924Z,13.30
2018-12-08T02:49:48.412Z,15.50
2018-12-08T02:52:16.712Z,16.90
2018-12-08T02:54:45.111Z,18.37
2018-12-08T02:57:13.404Z,17.80
2018-12-08T02:59:41.729Z,21.47
2018-12-08T03:02:10.122Z,13.63
2018-12-08T03:04:38.532Z,15.30
2018-12-08T03:07:06.920Z,19.40
2018-12-08T03:09:35.450Z,13.63
2018-12-08T03:12:03.756Z,18.03
2018-12-08T03:14:32.020Z,19.07
2018-12-08T03:17:00.336Z,12.60
2018-12-08T03:19:28.665Z,11.30
2018-12-08T03:21:56.987Z,13.43
2018-12-08T03:24:25.403Z,10.87
2018-12-08T03:26:53.835Z,16.93
2018-12-08T03:29:22.173Z,19.77
2018-12-08T03:31:50.631Z,13.00
2018-12-08T03:34:18.954Z,9.40
2018-12-08T03:36:47.308Z,14.67
2018-12-08T03:39:16.457Z,13.87
2018-12-08T03:41:44.905Z,6.23
2018-12-08T03:44:13.211Z,16.40
2018-12-08T03:46:41.549Z,14.37
2018-12-08T03:49:10.030Z,11.40
2018-12-08T03:51:38.740Z,11.27
2018-12-08T03:54:07.060Z,13.23
2018-12-08T03:56:35.332Z,13.67
2018-12-08T03:59:03.649Z,16.03
2018-12-08T04:01:31.960Z,12.50
2018-12-08T04:04:00.314Z,12.47
2018-12-08T04:06:28.781Z,18.73
2018-12-08T04:08:57.261Z,15.07
2018-12-08T04:11:25.650Z,12.67
2018-12-08T04:13:53.956Z,12.90
2018-12-08T04:16:22.603Z,13.83
2018-12-08T04:18:51.335Z,15.77
2018-12-08T04:21:19.628Z,12.53
2018-12-08T04:23:47.980Z,18.33
2018-12-08T04:26:16.272Z,18.17
2018-12-08T04:28:44.706Z,12.17
2018-12-08T04:31:12.980Z,10.10
2018-12-08T04:33:42.139Z,13.33
2018-12-08T04:36:10.416Z,10.33
2018-12-08T04:38:39.261Z,11.30
2018-12-08T04:41:07.624Z,14.30
2018-12-08T04:43:35.954Z,15.33
2018-12-08T04:46:04.301Z,10.20
2018-12-08T04:48:33.209Z,10.67
2018-12-08T04:51:01.518Z,15.43
2018-12-08T04:53:35.067Z,8.73
2018-12-08T04:56:03.785Z,13.73
2018-12-08T04:58:32.070Z,10.60
2018-12-08T05:01:00.437Z,15.33
2018-12-08T05:03:28.723Z,12.93
2018-12-08T05:05:57.012Z,15.13
2018-12-08T05:08:26.108Z,10.93
2018-12-08T05:10:54.428Z,11.63
2018-12-08T05:13:22.679Z,18.10
2018-12-08T05:15:50.998Z,13.40
2018-12-08T05:18:19.302Z,11.40
2018-12-08T05:20:47.975Z,13.23
2018-12-08T05:23:16.333Z,11.97
2018-12-08T05:25:44.682Z,13.27
2018-12-08T05:28:12.977Z,17.10
2018-12-08T05:30:41.359Z,7.60
2018-12-08T05:33:09.882Z,11.53
2018-12-08T05:35:38.217Z,13.63
2018-12-08T05:38:06.634Z,10.47
2018-12-08T05:40:35.024Z,14.30
2018-12-08T05:43:03.533Z,11.70
2018-12-08T05:45:31.882Z,16.50
2018-12-08T05:48:00.182Z,17.17
2018-12-08T05:50:28.760Z,16.47
2018-12-08T05:52:57.058Z,16.83
2018-12-08T05:55:25.333Z,16.10
2018-12-08T05:57:53.722Z,15.03
2018-12-08T06:00:22.426Z,9.70
2018-12-08T06:02:50.936Z,14.50
2018-12-08T06:05:19.413Z,14.63
2018-12-08T06:07:48.205Z,17.23
2018-12-08T06:10:16.908Z,14.40
2018-12-08T06:12:45.153Z,11.80
2018-12-08T06:15:13.694Z,15.27
2018-12-08T06:17:41.996Z,13.77
2018-12-08T06:20:10.410Z,11.97
2018-12-08T06:22:38.715Z,15.90
2018-12-08T06:25:11.004Z,11.97
2018-12-08T06:27:45.620Z,11.47
2018-12-08T06:30:13.914Z,11.93
2018-12-08T06:32:42.217Z,15.60
2018-12-08T06:35:11.355Z,14.77
2018-12-08T06:37:39.640Z,14.57
2018-12-08T06:40:07.964Z,14.53
2018-12-08T06:42:36.329Z,12.60
2018-12-08T06:45:05.957Z,15.27
2018-12-08T06:47:34.425Z,18.53
2018-12-08T06:50:02.824Z,15.27
2018-12-08T06:52:31.113Z,18.90
2018-12-08T06:54:59.479Z,18.20
2018-12-08T06:57:27.794Z,15.57
2018-12-08T06:59:56.104Z,19.70
2018-12-08T07:02:24.401Z,13.20
2018-12-08T07:04:53.353Z,11.27
2018-12-08T07:07:21.686Z,14.77
2018-12-08T07:09:50.108Z,11.80
2018-12-08T07:12:18.648Z,11.23
2018-12-08T07:14:47.010Z,15.57
2018-12-08T07:17:15.315Z,13.73
2018-12-08T07:19:43.608Z,13.50
2018-12-08T07:22:11.921Z,13.10
2018-12-08T07:24:40.220Z,16.90
2018-12-08T07:27:08.538Z,20.33
2018-12-08T07:29:36.860Z,13.30
2018-12-08T07:32:05.143Z,9.60
2018-12-08T07:34:34.063Z,15.23
2018-12-08T07:37:02.392Z,11.87
2018-12-08T07:39:31.645Z,8.47
2018-12-08T07:41:59.935Z,11.17
2018-12-08T07:44:28.984Z,12.57
2018-12-08T07:46:58.304Z,12.47
2018-12-08T07:49:27.468Z,19.43
2018-12-08T07:51:55.828Z,9.03
2018-12-08T07:54:25.053Z,14.60
2018-12-08T07:56:53.368Z,15.03
2018-12-08T07:59:21.748Z,10.67
2018-12-08T08:01:50.055Z,8.87
2018-12-08T08:04:18.357Z,12.77
2018-12-08T08:06:46.693Z,10.07
2018-12-08T08:09:15.226Z,10.87
2018-12-08T08:11:43.540Z,15.50
2018-12-08T08:14:11.828Z,12.90
2018-12-08T08:16:40.137Z,15.80
2018-12-08T08:19:08.421Z,14.43
2018-12-08T08:21:36.788Z,11.13
2018-12-08T08:24:05.117Z,19.40
2018-12-08T08:26:33.533Z,12.17
2018-12-08T08:29:01.877Z,14.53
2018-12-08T08:31:30.306Z,14.20
2018-12-08T08:33:58.632Z,17.80
2018-12-08T08:36:26.968Z,16.00
2018-12-08T08:38:55.242Z,6.50
2018-12-08T08:41:24.594Z,8.97
2018-12-08T08:43:52.904Z,12.90
2018-12-08T08:46:21.177Z,7.60
2018-12-08T08:48:49.528Z,7.50
2018-12-08T08:51:18.315Z,10.73
2018-12-08T08:53:46.642Z,8.53
2018-12-08T08:56:15.136Z,10.40
2018-12-08T08:58:43.476Z,7.23
2018-12-08T09:01:11.883Z,8.93
2018-12-08T09:03:40.448Z,9.17
2018-12-08T09:06:08.751Z,10.23
2018-12-08T09:08:37.058Z,10.93
2018-12-08T09:11:05.605Z,8.50
2018-12-08T09:13:33.901Z,9.23
2018-12-08T09:16:03.152Z,9.33
2018-12-08T09:18:31.989Z,11.97
2018-12-08T09:21:00.395Z,7.73
2018-12-08T09:23:28.698Z,10.53
2018-12-08T09:25:57.797Z,10.27
2018-12-08T09:28:26.229Z,11.17
2018-12-08T09:30:54.521Z,12.10
2018-12-08T09:33:22.830Z,9.30
2018-12-08T09:35:51.576Z,11.70
2018-12-08T09:38:19.893Z,14.97
2018-12-08T09:40:48.161Z,12.20
2018-12-08T09:43:16.482Z,15.43
2018-12-08T09:45:44.833Z,11.70
2018-12-08T09:48:13.161Z,14.20
2018-12-08T09:50:41.472Z,16.40
2018-12-08T09:53:15.144Z,12.70
2018-12-08T09:55:43.519Z,12.53
2018-12-08T09:58:11.844Z,10.73
2018-12-08T10:00:40.334Z,13.07
2018-12-08T10:03:08.664Z,11.57
2018-12-08T10:05:36.976Z,13.03
2018-12-08T10:08:05.294Z,8.33
2018-12-08T10:10:33.644Z,8.90
2018-12-08T10:13:01.946Z,11.30
2018-12-08T10:15:30.325Z,9.77
2018-12-08T10:17:58.680Z,10.20
2018-12-08T10:20:27.036Z,10.70
2018-12-08T10:22:55.432Z,10.70
2018-12-08T10:25:23.758Z,9.40
2018-12-08T10:27:52.639Z,12.27
2018-12-08T10:30:20.982Z,19.90
2018-12-08T10:32:49.379Z,10.07
2018-12-08T10:35:17.755Z,14.27
2018-12-08T10:37:46.122Z,11.60
2018-12-08T10:40:14.743Z,11.63
2018-12-08T10:42:43.028Z,9.63
2018-12-08T10:45:11.804Z,13.23
2018-12-08T10:47:40.163Z,15.20
2018-12-08T10:50:08.904Z,8.80
2018-12-08T10:52:37.179Z,8.47
2018-12-08T10:55:06.141Z,11.67
2018-12-08T10:57:34.494Z,11.60
2018-12-08T11:00:03.054Z,13.13
2018-12-08T11:02:39.811Z,9.73
2018-12-08T11:05:08.564Z,12.40
2018-12-08T11:07:36.993Z,12.67
2018-12-08T11:10:05.821Z,6.53
2018-12-08T11:12:34.154Z,11.27
2018-12-08T11:15:02.512Z,8.77
2018-12-08T11:17:30.941Z,10.00
2018-12-08T11:19:59.397Z,15.17
2018-12-08T11:22:27.734Z,15.13
2018-12-08T11:24:56.163Z,13.63
2018-12-08T11:27:24.473Z,14.97
2018-12-08T11:29:52.824Z,13.57
2018-12-08T11:32:21.142Z,16.23
2018-12-08T11:34:49.467Z,13.90
2018-12-08T11:37:18.085Z,16.10
2018-12-08T11:39:46.413Z,18.33
2018-12-08T11:42:14.919Z,14.10
2018-12-08T11:44:43.688Z,15.10
2018-12-08T11:47:12.089Z,17.30
2018-12-08T11:49:40.388Z,20.73
2018-12-08T11:52:08.877Z,17.27
2018-12-08T11:54:38.151Z,16.47
2018-12-08T11:57:06.837Z,15.70
2018-12-08T11:59:35.146Z,15.33
2018-12-08T12:02:04.171Z,19.73
2018-12-08T12:04:32.658Z,22.07
2018-12-08T12:07:00.970Z,13.53
2018-12-08T12:09:29.501Z,19.63
2018-12-08T12:11:57.838Z,23.50
2018-12-08T12:14:45.295Z,18.27
2018-12-08T12:17:13.587Z,21.30
2018-12-08T12:19:41.891Z,21.00
2018-12-08T12:22:10.194Z,24.37
2018-12-08T12:24:38.532Z,19.47
2018-12-08T12:27:06.809Z,21.77
2018-12-08T12:29:35.117Z,23.80
2018-12-08T12:32:03.424Z,16.20
2018-12-08T12:34:31.848Z,17.13
2018-12-08T12:37:00.240Z,16.53
2018-12-08T12:39:28.573Z,17.57
2018-12-08T12:41:57.191Z,15.40
2018-12-08T12:44:25.555Z,19.40
2018-12-08T12:46:53.953Z,15.43
2018-12-08T12:49:22.283Z,19.30
2018-12-08T12:51:50.873Z,17.50
2018-12-08T12:54:19.722Z,14.47
2018-12-08T12:56:48.176Z,10.80
2018-12-08T12:59:16.623Z,22.17
2018-12-08T13:01:45.051Z,11.43
2018-12-08T13:04:13.486Z,11.87
2018-12-08T13:06:42.011Z,12.97
2018-12-08T13:09:10.456Z,13.97
2018-12-08T13:11:38.778Z,10.67
2018-12-08T13:14:07.205Z,20.53
2018-12-08T13:16:35.514Z,13.27
2018-12-08T13:19:03.891Z,19.10
2018-12-08T13:21:32.850Z,16.60
2018-12-08T13:24:01.116Z,16.33
2018-12-08T13:26:29.474Z,16.03
2018-12-08T13:28:57.835Z,14.07
2018-12-08T13:31:26.169Z,17.03
2018-12-08T13:33:54.885Z,18.20
2018-12-08T13:36:23.340Z,21.93
2018-12-08T13:38:51.826Z,13.73
2018-12-08T13:41:20.115Z,15.57
2018-12-08T13:43:52.740Z,16.30
2018-12-08T13:46:21.044Z,17.77
2018-12-08T13:48:49.372Z,17.03
2018-12-08T13:51:18.151Z,14.73
2018-12-08T13:53:46.452Z,14.23
2018-12-08T13:56:14.922Z,18.77
2018-12-08T13:58:43.311Z,14.80
2018-12-08T14:01:11.625Z,13.07
2018-12-08T14:03:40.002Z,16.43
2018-12-08T14:06:08.325Z,15.57
2018-12-08T14:08:36.723Z,12.33
2018-12-08T14:11:05.054Z,20.40
2018-12-08T14:13:33.491Z,14.20
2018-12-08T14:16:01.889Z,11.60
2018-12-08T14:18:30.187Z,11.63
2018-12-08T14:20:58.509Z,16.50
2018-12-08T14:23:27.022Z,15.07
2018-12-08T14:25:55.349Z,9.50
2018-12-08T14:28:24.368Z,10.67
2018-12-08T14:30:53.523Z,12.87
2018-12-08T14:33:21.879Z,12.03
2018-12-08T14:35:50.196Z,17.37
2018-12-08T14:38:19.037Z,16.40
2018-12-08T14:40:47.435Z,12.33
2018-12-08T14:43:15.735Z,19.10
2018-12-08T14:45:44.286Z,18.27
2018-12-08T14:48:12.673Z,16.37
2018-12-08T14:50:41.232Z,18.07
2018-12-08T14:53:09.536Z,19.90
2018-12-08T14:55:37.969Z,17.73
2018-12-08T14:58:06.278Z,10.90
2018-12-08T15:00:35.318Z,13.77
2018-12-08T15:03:03.746Z,12.43
2018-12-08T15:05:32.420Z,13.30
2018-12-08T15:08:00.957Z,14.27
2018-12-08T15:10:29.374Z,19.87
2018-12-08T15:12:57.676Z,20.47
2018-12-08T15:15:26.299Z,18.33
2018-12-08T15:17:54.863Z,19.17
2018-12-08T15:20:23.159Z,15.57
2018-12-08T15:22:51.595Z,18.33
2018-12-08T15:25:19.912Z,15.97
2018-12-08T15:27:48.272Z,16.87
2018-12-08T15:30:16.655Z,17.50
2018-12-08T15:32:45.040Z,21.63
2018-12-08T15:35:13.571Z,17.10
2018-12-08T15:37:41.873Z,12.67
2018-12-08T15:40:10.466Z,13.53
2018-12-08T15:42:39.100Z,9.50
2018-12-08T15:45:09.559Z,16.17
2018-12-08T15:47:37.891Z,13.83
2018-12-08T15:50:08.046Z,17.07
2018-12-08T15:52:36.585Z,16.33
2018-12-08T15:55:05.391Z,12.40
2018-12-08T15:57:34.405Z,11.63
2018-12-08T16:00:03.916Z,11.50
2018-12-08T16:02:32.264Z,11.70
2018-12-08T16:05:01.457Z,11.47
2018-12-08T16:07:30.764Z,13.00
2018-12-08T16:09:59.442Z,12.23
2018-12-08T16:12:27.829Z,12.87
2018-12-08T16:14:56.159Z,17.40
2018-12-08T16:17:24.575Z,15.37
2018-12-08T16:19:52.970Z,16.80
2018-12-08T16:22:21.355Z,22.83
2018-12-08T16:24:50.208Z,17.80
2018-12-08T16:27:18.583Z,16.00
2018-12-08T16:29:46.986Z,17.33
2018-12-08T16:32:16.279Z,17.03
2018-12-08T16:34:44.584Z,21.50
2018-12-08T16:37:13.031Z,17.93
2018-12-08T16:39:41.398Z,19.33
2018-12-08T16:42:09.785Z,19.30
2018-12-08T16:44:38.804Z,19.10
2018-12-08T16:47:07.193Z,18.67
2018-12-08T16:49:35.686Z,16.27
2018-12-08T16:52:04.097Z,16.20
2018-12-08T16:54:32.492Z,22.97
2018-12-08T16:57:00.776Z,21.10
2018-12-08T16:59:29.108Z,23.30
2018-12-08T17:01:57.413Z,19.43
2018-12-08T17:04:26.132Z,22.13
2018-12-08T17:06:55.445Z,18.40
2018-12-08T17:09:23.786Z,22.13
2018-12-08T17:11:52.110Z,17.33
2018-12-08T17:14:20.474Z,19.87
2018-12-08T17:16:49.231Z,13.80
2018-12-08T17:19:17.641Z,21.07
2018-12-08T17:21:45.920Z,24.00
2018-12-08T17:24:14.371Z,23.87
2018-12-08T17:26:43.149Z,20.33
2018-12-08T17:29:11.551Z,18.17
2018-12-08T17:31:40.848Z,19.63
2018-12-08T17:34:09.251Z,18.30
2018-12-08T17:36:38.399Z,19.63
2018-12-08T17:39:06.879Z,22.33
2018-12-08T17:41:35.176Z,26.17
2018-12-08T17:44:03.922Z,18.37
2018-12-08T17:46:32.288Z,24.70
2018-12-08T17:49:00.795Z,22.73
2018-12-08T17:51:29.103Z,21.87
2018-12-08T17:53:59.651Z,27.00
2018-12-08T17:56:28.023Z,53.80
2018-12-08T17:58:57.244Z,16.30
2018-12-08T18:01:25.803Z,22.83
2018-12-08T18:03:54.262Z,18.73
2018-12-08T18:06:22.946Z,18.47
2018-12-08T18:08:51.599Z,19.50
2018-12-08T18:11:19.939Z,19.17
2018-12-08T18:13:48.581Z,22.87
2018-12-08T18:16:17.188Z,20.90
2018-12-08T18:18:45.740Z,23.03
2018-12-08T18:21:14.370Z,21.57
2018-12-08T18:23:42.804Z,19.73
2018-12-08T18:26:11.116Z,16.40
2018-12-08T18:28:39.428Z,20.90
2018-12-08T18:31:07.738Z,18.57
2018-12-08T18:33:36.583Z,15.83
2018-12-08T18:36:05.001Z,21.73
2018-12-08T18:38:33.397Z,14.80
2018-12-08T18:41:01.724Z,18.13
2018-12-08T18:43:30.155Z,18.97
2018-12-08T18:45:58.709Z,21.50
2018-12-08T18:48:27.074Z,18.10
2018-12-08T18:50:55.387Z,21.17
2018-12-08T18:53:23.812Z,17.87
2018-12-08T18:55:52.126Z,22.03
2018-12-08T18:58:21.048Z,17.33
2018-12-08T19:00:49.633Z,19.57
2018-12-08T19:03:18.220Z,17.30
2018-12-08T19:05:46.500Z,21.27
2018-12-08T19:08:14.800Z,18.33
2018-12-08T19:10:43.155Z,28.47
2018-12-08T19:13:11.465Z,21.57
2018-12-08T19:15:39.760Z,26.20
2018-12-08T19:18:08.143Z,30.70
2018-12-08T19:20:36.436Z,23.77
2018-12-08T19:23:04.763Z,25.93
2018-12-08T19:25:33.937Z,27.07
2018-12-08T19:28:02.258Z,30.80
2018-12-08T19:30:31.015Z,26.13
2018-12-08T19:32:59.445Z,20.93
2018-12-08T19:35:27.725Z,36.13
2018-12-08T19:37:56.070Z,23.93
2018-12-08T19:40:25.340Z,24.57
2018-12-08T19:42:53.664Z,21.43
2018-12-08T19:45:22.019Z,22.10
2018-12-08T19:47:50.370Z,21.33
2018-12-08T19:50:18.779Z,20.47
2018-12-08T19:52:47.242Z,17.17
2018-12-08T19:55:15.613Z,19.23
2018-12-08T19:57:43.909Z,16.93
2018-12-08T20:00:12.300Z,17.80
2018-12-08T20:02:40.665Z,15.50
2018-12-08T20:05:09.073Z,19.50
2018-12-08T20:07:37.553Z,19.53
2018-12-08T20:10:07.844Z,14.30
2018-12-08T20:12:36.168Z,19.03
2018-12-08T20:15:06.718Z,16.70
2018-12-08T20:17:35.054Z,12.50
2018-12-08T20:20:03.987Z,14.37
2018-12-08T20:22:32.320Z,17.73
2018-12-08T20:25:00.665Z,15.47
2018-12-08T20:27:28.999Z,14.00
2018-12-08T20:29:57.368Z,14.77
2018-12-08T20:35:00.363Z,14.40
2018-12-08T20:37:28.689Z,13.30
2018-12-08T20:39:57.583Z,12.53
2018-12-08T20:42:25.946Z,11.33
2018-12-08T20:44:54.344Z,10.77
2018-12-08T20:47:22.684Z,9.87
2018-12-08T20:49:51.019Z,11.73
2018-12-08T20:52:19.378Z,8.90
2018-12-08T20:54:47.718Z,8.80
2018-12-08T20:57:16.100Z,8.23
2018-12-08T20:59:44.447Z,8.20
2018-12-08T21:02:12.740Z,7.23
2018-12-08T21:04:41.117Z,7.07
2018-12-08T21:07:09.488Z,7.00
2018-12-08T21:09:37.796Z,4.87
2018-12-08T21:12:06.748Z,8.10
2018-12-08T21:14:35.171Z,2.90
2018-12-08T21:17:03.680Z,5.40
2018-12-08T21:19:31.988Z,5.13
2018-12-08T21:22:01.201Z,5.70
2018-12-08T21:24:29.563Z,6.07
2018-12-08T21:26:58.349Z,4.87
2018-12-08T21:29:26.631Z,4.30
2018-12-08T21:31:54.986Z,4.07
2018-12-08T21:34:23.326Z,2.63
2018-12-08T21:36:51.622Z,3.20
2018-12-08T21:39:19.942Z,2.63
2018-12-08T21:41:48.336Z,4.97
2018-12-08T21:44:16.833Z,2.77
2018-12-08T21:46:45.151Z,3.00
2018-12-08T21:49:14.390Z,2.73
2018-12-08T21:51:42.721Z,4.23
2018-12-08T21:54:11.053Z,4.23
2018-12-08T21:56:39.353Z,2.30
2018-12-08T21:59:07.663Z,2.43
2018-12-08T22:01:36.100Z,2.87
2018-12-08T22:04:04.484Z,3.40
2018-12-08T22:06:32.942Z,3.23
2018-12-08T22:09:01.346Z,3.47
2018-12-08T22:11:29.678Z,3.87
2018-12-08T22:13:57.988Z,2.77
2018-12-08T22:16:26.316Z,1.43
2018-12-08T22:18:54.627Z,2.63
2018-12-08T22:21:22.944Z,2.87
2018-12-08T22:23:51.286Z,2.47
2018-12-08T22:26:19.602Z,2.00
2018-12-08T22:28:48.072Z,3.77
2018-12-08T22:31:16.343Z,3.17
2018-12-08T22:33:44.745Z,4.70
2018-12-08T22:36:13.039Z,3.03
2018-12-08T22:38:41.338Z,5.17
2018-12-08T22:41:09.630Z,3.80
2018-12-08T22:43:38.971Z,4.17
2018-12-08T22:46:08.182Z,3.87
2018-12-08T22:48:37.292Z,4.97
2018-12-08T22:51:05.972Z,7.40
2018-12-08T22:53:34.458Z,7.80
2018-12-08T22:56:07.332Z,4.80
2018-12-08T22:58:35.701Z,4.80
2018-12-08T23:01:04.466Z,3.63
2018-12-08T23:03:32.828Z,5.17
2018-12-08T23:06:01.431Z,5.30
2018-12-08T23:08:29.882Z,4.47
2018-12-08T23:10:58.188Z,7.23
2018-12-08T23:13:26.495Z,6.03
2018-12-08T23:15:54.916Z,6.30
2018-12-08T23:18:23.226Z,7.97
2018-12-08T23:20:52.100Z,7.57
2018-12-08T23:23:20.596Z,9.03
2018-12-08T23:25:49.048Z,7.03
2018-12-08T23:28:17.494Z,5.60
2018-12-08T23:30:46.150Z,8.80
2018-12-08T23:33:14.433Z,7.67
2018-12-08T23:35:43.330Z,17.93
2018-12-08T23:38:12.694Z,10.83
2018-12-08T23:40:40.987Z,12.17
2018-12-08T23:43:10.216Z,15.90
2018-12-08T23:45:38.537Z,16.37
2018-12-08T23:48:06.846Z,8.60
2018-12-08T23:50:35.156Z,9.13
2018-12-08T23:53:03.529Z,8.23
2018-12-08T23:55:32.721Z,10.53
2018-12-08T23:58:01.540Z,10.63
